Time;durP1;ratioP1;P1;durP2;ratioP2;P2;SDS_P1;SDS_P2;PMS_P1;PMS_P2;Temp;Humidity;BMP_temperature;BMP_pressure;BME280_temperature;BME280_humidity;BME280_pressure;Samples;Min_cycle;Max_cycle;Signal;HPM_P1;HPM_P2
2021/07/26 00:02:10;;;;;;;4.82;3.28;;;;;;;22.32;56.13;100774.09;4981328;28;109262;-64
2021/07/26 00:04:37;;;;;;;3.92;2.95;;;;;;;22.29;56.35;100774.38;4980485;28;109265;-64
2021/07/26 00:07:05;;;;;;;4.97;3.40;;;;;;;22.27;56.37;100773.69;4976325;28;124361;-65
2021/07/26 00:09:33;;;;;;;4.32;3.15;;;;;;;22.24;56.38;100773.94;4984356;28;124629;-63
2021/07/26 00:12:01;;;;;;;6.10;3.50;;;;;;;22.22;56.27;100765.13;4979743;28;109076;-63
2021/07/26 00:14:28;;;;;;;6.45;3.65;;;;;;;22.20;56.12;100767.13;4961537;28;108048;-63
2021/07/26 00:16:55;;;;;;;6.22;3.50;;;;;;;22.17;55.96;100756.66;4976673;28;124513;-63
2021/07/26 00:19:23;;;;;;;4.88;3.40;;;;;;;22.15;56.35;100758.63;4974055;28;123909;-63
2021/07/26 00:21:51;;;;;;;5.53;3.25;;;;;;;22.13;56.21;100760.63;4978489;28;109182;-63
2021/07/26 00:24:19;;;;;;;6.07;3.40;;;;;;;22.11;56.31;100757.22;4984766;28;109032;-63
2021/07/26 00:26:47;;;;;;;4.97;3.13;;;;;;;22.08;56.40;100762.94;4976213;28;124852;-63
2021/07/26 00:29:14;;;;;;;6.35;3.50;;;;;;;22.06;56.50;100760.38;4981038;28;122960;-63
2021/07/26 00:31:41;;;;;;;5.10;3.47;;;;;;;22.04;56.50;100762.38;4974959;28;110521;-63
2021/07/26 00:34:21;;;;;;;6.47;3.80;;;;;;;22.01;56.70;100756.41;4982995;28;109214;-63
2021/07/26 00:36:55;;;;;;;5.68;3.80;;;;;;;21.96;56.66;100760.41;4976018;28;124692;-63
2021/07/26 00:39:25;;;;;;;4.75;3.60;;;;;;;21.92;56.41;100764.34;4980118;28;123752;-63
2021/07/26 00:41:53;;;;;;;5.63;3.47;;;;;;;21.85;56.76;100763.25;4978706;28;109570;-63
2021/07/26 00:44:22;;;;;;;6.35;4.22;;;;;;;21.80;56.90;100756.59;4978459;28;108975;-63
2021/07/26 00:46:50;;;;;;;5.57;3.70;;;;;;;21.76;56.98;100753.34;4978015;28;124169;-63
2021/07/26 00:49:19;;;;;;;5.47;3.50;;;;;;;21.70;56.92;100759.28;4976078;28;124716;-63
2021/07/26 00:51:48;;;;;;;5.55;3.03;;;;;;;21.67;57.03;100751.50;4977063;28;109248;-63
2021/07/26 00:54:18;;;;;;;7.07;3.83;;;;;;;21.64;57.10;100749.09;4975752;28;109235;-64
2021/07/26 00:56:47;;;;;;;5.28;3.28;;;;;;;21.59;57.13;100752.22;4974392;28;124616;-63
2021/07/26 00:59:15;;;;;;;5.40;3.63;;;;;;;21.54;57.27;100749.94;4980934;28;123617;-63
2021/07/26 01:01:42;;;;;;;6.47;3.65;;;;;;;21.50;57.19;100753.91;4978159;28;109170;-63
2021/07/26 01:04:10;;;;;;;6.70;4.13;;;;;;;21.48;57.40;100755.91;4973786;28;109143;-63
2021/07/26 01:06:38;;;;;;;5.53;3.67;;;;;;;21.46;57.54;100763.28;4980682;28;124530;-63
2021/07/26 01:09:06;;;;;;;5.97;3.63;;;;;;;21.46;57.38;100760.59;4981248;28;123733;-63
2021/07/26 01:11:33;;;;;;;6.25;3.78;;;;;;;21.46;57.65;100760.59;4983286;28;107756;-64
2021/07/26 01:14:01;;;;;;;5.82;3.80;;;;;;;21.46;57.39;100763.28;4983817;28;109112;-64
2021/07/26 01:16:30;;;;;;;7.72;3.58;;;;;;;21.44;57.28;100759.88;4980554;28;123914;-63
2021/07/26 01:19:00;;;;;;;5.93;3.63;;;;;;;21.40;57.21;100753.06;4971606;28;123973;-64
2021/07/26 01:21:30;;;;;;;4.85;3.58;;;;;;;21.38;57.15;100765.81;4977487;28;110535;-64
2021/07/26 01:23:59;;;;;;;5.60;3.78;;;;;;;21.34;57.15;100758.97;4976562;28;110087;-64
2021/07/26 01:26:26;;;;;;;6.45;3.95;;;;;;;21.31;57.30;100762.81;4979309;28;124501;-64
2021/07/26 01:29:04;;;;;;;5.82;3.58;;;;;;;21.29;57.36;100761.28;4975562;28;123818;-63
2021/07/26 01:31:32;;;;;;;5.20;3.40;;;;;;;21.27;57.33;100760.56;4975505;28;109182;-64
2021/07/26 01:33:59;;;;;;;4.88;3.55;;;;;;;21.25;57.46;100757.13;4978651;28;109161;-63
2021/07/26 01:36:27;;;;;;;6.90;3.60;;;;;;;21.26;57.52;100766.94;4979701;28;123972;-64
2021/07/26 01:38:54;;;;;;;5.85;3.55;;;;;;;21.24;57.37;100763.53;4983647;28;124007;-64
2021/07/26 01:41:24;;;;;;;7.82;3.97;;;;;;;21.21;57.59;100764.66;4978445;28;109473;-64
2021/07/26 01:44:06;;;;;;;5.57;3.80;;;;;;;21.19;57.64;100764.81;4975320;28;109073;-64
2021/07/26 01:46:51;;;;;;;7.05;4.00;;;;;;;21.17;57.49;100758.72;4972339;28;123977;-64
2021/07/26 01:49:43;;;;;;;7.60;3.60;;;;;;;21.15;57.27;100760.69;4972841;28;123949;-64
2021/07/26 01:52:12;;;;;;;6.80;3.72;;;;;;;21.16;57.34;100761.53;4973485;28;109922;-64
2021/07/26 01:54:39;;;;;;;5.30;3.75;;;;;;;21.15;57.49;100765.22;4977872;28;108987;-64
2021/07/26 01:57:07;;;;;;;5.07;3.75;;;;;;;21.13;57.59;100772.56;4977973;28;123519;-64
2021/07/26 01:59:34;;;;;;;6.90;4.00;;;;;;;21.12;57.65;100766.34;4985816;28;125032;-64
2021/07/26 02:02:02;;;;;;;4.00;3.17;;;;;;;21.10;57.74;100773.72;4978643;28;109607;-64
2021/07/26 02:04:29;;;;;;;4.80;3.30;;;;;;;21.07;57.80;100771.28;4980979;28;109708;-64
2021/07/26 02:06:57;;;;;;;6.47;3.55;;;;;;;21.03;57.89;100777.94;4976771;28;123350;-64
2021/07/26 02:09:24;;;;;;;5.65;3.75;;;;;;;20.98;57.93;100764.91;4974300;28;123916;-64
2021/07/26 02:11:52;;;;;;;10.32;4.07;;;;;;;20.97;57.91;100768.59;4975967;28;110496;-64
2021/07/26 02:14:19;;;;;;;4.90;3.45;;;;;;;20.97;57.90;100773.13;4977738;28;110310;-64
2021/07/26 02:16:51;;;;;;;5.55;3.50;;;;;;;20.96;57.89;100777.66;4975319;28;124127;-64
2021/07/26 02:19:19;;;;;;;5.47;3.58;;;;;;;20.96;58.04;100787.56;4969533;28;124043;-64
2021/07/26 02:21:46;;;;;;;6.15;3.90;;;;;;;20.94;57.92;100784.16;4978154;28;109151;-64
2021/07/26 02:24:13;;;;;;;5.03;3.75;;;;;;;20.94;58.03;100789.53;4980213;28;109240;-64
2021/07/26 02:26:41;;;;;;;5.65;4.10;;;;;;;20.91;58.24;100789.84;4983853;28;123656;-64
2021/07/26 02:29:08;;;;;;;5.68;4.07;;;;;;;20.88;58.26;100790.09;4977188;28;123689;-64
2021/07/26 02:31:35;;;;;;;5.70;3.92;;;;;;;20.84;58.22;100788.69;4981232;28;110823;-64
2021/07/26 02:34:02;;;;;;;6.63;4.15;;;;;;;20.78;58.30;100790.09;4985880;28;108831;-64
2021/07/26 02:36:29;;;;;;;5.40;4.15;;;;;;;20.73;58.44;100787.78;4988214;28;123854;-64
2021/07/26 02:38:57;;;;;;;4.82;3.80;;;;;;;20.70;58.58;100793.47;4982088;28;124276;-64
2021/07/26 02:41:24;;;;;;;5.93;4.35;;;;;;;20.67;58.69;100793.72;4980151;28;108285;-64
2021/07/26 02:43:51;;;;;;;5.60;3.88;;;;;;;20.67;58.83;100788.34;4981350;28;109064;-64
2021/07/26 02:46:18;;;;;;;6.72;4.30;;;;;;;20.67;58.94;100785.66;4983351;28;123998;-64
2021/07/26 02:48:45;;;;;;;6.85;4.07;;;;;;;20.69;59.15;100796.28;4983335;28;123934;-64
2021/07/26 02:51:13;;;;;;;6.00;3.90;;;;;;;20.69;59.22;100797.13;4982957;28;109482;-64
2021/07/26 02:53:43;;;;;;;6.25;3.92;;;;;;;20.70;59.13;100792.59;4984673;28;108751;-64
2021/07/26 02:56:11;;;;;;;6.68;4.18;;;;;;;20.71;59.23;100795.16;4976691;28;124383;-63
2021/07/26 02:58:38;;;;;;;5.03;3.78;;;;;;;20.72;59.28;100796.88;4984803;28;122739;-64
2021/07/26 03:01:10;;;;;;;5.75;4.10;;;;;;;20.72;59.36;100796.00;4989538;28;110618;-64
2021/07/26 03:03:38;;;;;;;6.65;4.57;;;;;;;20.73;59.37;100795.84;4981704;28;110416;-64
2021/07/26 03:06:14;;;;;;;7.05;4.45;;;;;;;20.72;59.26;100796.88;4986983;28;124379;-64
2021/07/26 03:08:41;;;;;;;6.68;4.85;;;;;;;20.73;59.48;100809.31;4979736;28;123814;-64
2021/07/26 03:11:10;;;;;;;6.35;4.60;;;;;;;20.74;59.66;100805.66;4984051;28;109568;-64
2021/07/26 03:13:39;;;;;;;5.80;4.35;;;;;;;20.74;59.69;100805.66;4979364;28;109053;-64
2021/07/26 03:16:07;;;;;;;6.70;4.15;;;;;;;20.75;59.62;100807.34;4978094;28;124999;-64
2021/07/26 03:18:35;;;;;;;8.43;4.75;;;;;;;20.78;59.66;100812.47;4984078;28;124533;-64
2021/07/26 03:21:04;;;;;;;6.53;4.45;;;;;;;20.79;59.79;100814.19;4983614;28;109430;-63
2021/07/26 03:23:32;;;;;;;7.00;4.50;;;;;;;20.80;59.71;100810.47;4979204;28;108705;-63
2021/07/26 03:25:59;;;;;;;8.05;4.70;;;;;;;20.78;59.60;100817.84;4982207;28;124673;-64
2021/07/26 03:28:26;;;;;;;6.95;4.82;;;;;;;20.77;59.80;100821.50;4979082;28;124224;-64
2021/07/26 03:30:53;;;;;;;7.28;4.85;;;;;;;20.75;59.84;100818.09;4980184;28;109508;-64
2021/07/26 03:33:20;;;;;;;7.03;4.93;;;;;;;20.75;59.86;100815.41;4979542;28;109289;-64
2021/07/26 03:35:48;;;;;;;7.97;4.38;;;;;;;20.75;59.90;100818.09;4985211;28;122947;-64
2021/07/26 03:38:15;;;;;;;7.22;4.13;;;;;;;20.76;59.66;100818.97;4978413;28;123792;-63
2021/07/26 03:40:42;;;;;;;6.50;4.40;;;;;;;20.75;59.54;100820.78;4975565;28;109052;-63
2021/07/26 03:43:09;;;;;;;7.60;4.40;;;;;;;20.75;59.49;100828.88;4982716;28;109720;-64
2021/07/26 03:45:36;;;;;;;6.35;4.50;;;;;;;20.74;59.42;100821.81;4978563;28;123413;-64
2021/07/26 03:48:04;;;;;;;7.18;4.45;;;;;;;20.73;59.42;100825.47;4980960;28;123900;-64
2021/07/26 03:50:31;;;;;;;9.55;4.43;;;;;;;20.73;59.59;100836.22;4979192;28;110510;-64
2021/07/26 03:52:59;;;;;;;9.10;4.72;;;;;;;20.73;59.54;100830.84;4983621;28;110175;-64
2021/07/26 03:55:34;;;;;;;7.28;4.13;;;;;;;20.70;59.72;100833.84;4981844;28;123911;-64
2021/07/26 03:58:03;;;;;;;7.20;4.53;;;;;;;20.70;59.73;100833.84;4981385;28;123741;-64
2021/07/26 04:00:31;;;;;;;6.80;4.13;;;;;;;20.68;59.78;100838.50;4990992;28;109569;-64
2021/07/26 04:05:51;;;;;;;7.97;4.78;;;;;;;20.64;59.92;100837.03;4980502;28;122724;-63
2021/07/26 04:08:22;;;;;;;9.20;4.95;;;;;;;20.65;59.97;100840.59;4980948;28;124329;-64
2021/07/26 04:10:58;;;;;;;6.03;4.20;;;;;;;20.65;60.07;100843.28;4978692;28;109715;-64
2021/07/26 04:13:25;;;;;;;6.97;4.65;;;;;;;20.65;59.93;100833.38;4981654;28;108259;-64
2021/07/26 04:15:52;;;;;;;7.72;4.60;;;;;;;20.65;59.94;100844.13;4977609;28;125107;-64
2021/07/26 04:18:19;;;;;;;6.97;4.55;;;;;;;20.65;60.09;100844.13;4989178;28;124697;-64
2021/07/26 04:20:47;;;;;;;6.53;4.45;;;;;;;20.66;60.10;100839.59;4981713;28;109307;-64
2021/07/26 04:23:14;;;;;;;8.18;4.75;;;;;;;20.66;60.09;100837.75;4975828;28;109250;-64
2021/07/26 04:25:41;;;;;;;7.50;4.68;;;;;;;20.67;60.03;100842.16;4979756;28;124889;-64
2021/07/26 04:28:08;;;;;;;6.57;4.38;;;;;;;20.69;60.20;100845.56;4977486;28;122724;-65
2021/07/26 04:30:35;;;;;;;6.18;4.53;;;;;;;20.71;60.16;100842.75;4989737;28;109610;-65
2021/07/26 04:33:03;;;;;;;9.25;5.15;;;;;;;20.71;60.19;100853.50;4986668;28;109316;-65
2021/07/26 04:35:30;;;;;;;8.70;4.50;;;;;;;20.71;60.36;100854.34;4983820;28;124156;-64
2021/07/26 04:37:57;;;;;;;7.78;4.47;;;;;;;20.71;60.33;100848.97;4972184;28;123309;-65
2021/07/26 04:40:24;;;;;;;7.07;4.22;;;;;;;20.74;60.36;100856.78;4984878;28;110517;-65
2021/07/26 04:42:53;;;;;;;7.65;4.47;;;;;;;20.76;60.51;100851.28;4982928;28;110242;-65
2021/07/26 04:45:21;;;;;;;7.78;4.32;;;;;;;20.77;60.40;100853.81;4982150;28;123988;-65
2021/07/26 04:47:48;;;;;;;8.52;4.78;;;;;;;20.80;60.50;100850.84;4988444;28;122603;-65
2021/07/26 04:50:16;;;;;;;10.02;4.93;;;;;;;20.82;60.43;100852.56;4985954;28;109650;-64
2021/07/26 04:52:43;;;;;;;6.85;4.70;;;;;;;20.84;60.48;100842.53;4987492;28;108017;-65
2021/07/26 04:55:11;;;;;;;8.82;4.45;;;;;;;20.88;60.55;100847.47;4985440;28;124380;-65
2021/07/26 04:57:38;;;;;;;7.32;4.60;;;;;;;20.94;60.68;100846.09;4980853;28;124509;-64
2021/07/26 05:00:07;;;;;;;7.78;4.80;;;;;;;20.97;60.92;100849.38;4978845;28;109554;-64
2021/07/26 05:02:34;;;;;;;7.18;4.70;;;;;;;21.03;60.57;100852.50;4984290;28;108674;-65
2021/07/26 05:05:01;;;;;;;8.23;4.72;;;;;;;21.08;60.51;100845.72;4986288;28;124380;-65
2021/07/26 05:07:29;;;;;;;8.40;4.60;;;;;;;21.14;60.67;100845.16;4983183;28;123905;-65
2021/07/26 05:09:56;;;;;;;7.03;4.80;;;;;;;21.19;60.79;100848.31;4983145;28;109485;-64
2021/07/26 05:12:23;;;;;;;6.55;4.88;;;;;;;21.25;60.61;100848.72;4984121;28;108989;-65
2021/07/26 05:14:52;;;;;;;7.07;4.80;;;;;;;21.30;60.60;100849.16;4988891;28;123021;-64
2021/07/26 05:17:23;;;;;;;7.75;5.13;;;;;;;21.33;60.50;100848.91;4979886;28;124298;-64
2021/07/26 05:19:50;;;;;;;10.27;5.03;;;;;;;21.39;60.31;100848.34;4991932;28;109269;-64
2021/07/26 05:22:18;;;;;;;8.45;5.15;;;;;;;21.44;60.69;100840.72;4983925;28;108302;-64
2021/07/26 05:24:46;;;;;;;7.65;4.95;;;;;;;21.50;60.57;100848.25;4985611;28;124509;-64
2021/07/26 05:27:13;;;;;;;7.72;5.40;;;;;;;21.57;60.64;100846.69;4985491;28;123879;-64
2021/07/26 05:29:41;;;;;;;6.85;4.90;;;;;;;21.64;60.51;100846.13;4985339;28;110305;-65
2021/07/26 05:32:08;;;;;;;7.70;5.10;;;;;;;21.70;60.44;100856.34;4989602;28;110079;-64
2021/07/26 05:34:36;;;;;;;6.45;4.70;;;;;;;21.74;60.27;100857.78;4985252;28;122975;-64
2021/07/26 05:37:03;;;;;;;8.40;5.07;;;;;;;21.79;60.24;100860.88;4984757;28;124009;-64
2021/07/26 05:39:30;;;;;;;8.10;4.68;;;;;;;21.82;60.21;100866.00;4982315;28;109274;-64
2021/07/26 05:41:59;;;;;;;7.20;4.85;;;;;;;21.86;60.23;100862.00;4982481;28;111117;-64
2021/07/26 05:44:27;;;;;;;6.10;4.57;;;;;;;21.92;60.26;100857.91;4970179;28;122922;-64
2021/07/26 05:46:54;;;;;;;7.22;5.18;;;;;;;21.96;60.22;100852.09;4977800;28;124227;-64
2021/07/26 05:49:21;;;;;;;7.50;4.47;;;;;;;22.01;60.06;100853.50;4977363;28;109331;-65
2021/07/26 05:51:48;;;;;;;8.20;5.15;;;;;;;22.03;59.89;100851.50;4983040;28;109406;-64
2021/07/26 05:54:15;;;;;;;7.63;5.07;;;;;;;22.05;59.85;100854.91;4979847;28;123971;-65
2021/07/26 05:56:44;;;;;;;7.95;5.07;;;;;;;22.09;59.76;100859.03;4983519;28;124018;-64
2021/07/26 05:59:11;;;;;;;7.55;4.55;;;;;;;22.10;59.82;100858.03;4975497;28;108747;-64
2021/07/26 06:01:47;;;;;;;7.07;4.55;;;;;;;22.14;59.59;100859.44;4979110;28;108681;-64
2021/07/26 06:04:20;;;;;;;6.57;4.55;;;;;;;22.16;59.64;100857.47;4977156;28;123953;-64
2021/07/26 06:06:49;;;;;;;6.10;4.20;;;;;;;22.18;59.47;100855.47;4978306;28;123832;-64
2021/07/26 06:09:17;;;;;;;8.02;5.00;;;;;;;22.20;59.26;100850.78;4973981;28;109469;-65
2021/07/26 06:11:45;;;;;;;8.15;4.72;;;;;;;22.23;59.38;100855.88;4985285;28;109226;-65
2021/07/26 06:14:13;;;;;;;8.50;4.43;;;;;;;22.27;59.40;100853.78;4979156;28;123965;-65
2021/07/26 06:16:44;;;;;;;6.88;4.45;;;;;;;22.31;59.40;100852.50;4973436;28;123730;-64
2021/07/26 06:19:12;;;;;;;7.70;4.57;;;;;;;22.33;59.29;100854.03;4983545;28;110635;-64
2021/07/26 06:21:42;;;;;;;9.95;4.50;;;;;;;22.36;59.42;100847.53;4971850;28;109766;-64
2021/07/26 06:24:10;;;;;;;7.13;4.80;;;;;;;22.39;59.26;100851.75;4977387;28;124854;-64
2021/07/26 06:26:37;;;;;;;6.70;4.50;;;;;;;22.41;59.10;100860.56;4983990;28;124017;-64
2021/07/26 06:29:05;;;;;;;8.07;4.55;;;;;;;22.43;59.15;100847.78;4981689;28;108901;-64
2021/07/26 06:31:32;;;;;;;10.25;4.70;;;;;;;22.46;59.00;100853.72;4977509;28;108020;-64
2021/07/26 06:34:01;;;;;;;6.35;4.57;;;;;;;22.49;59.10;100855.28;4973486;28;124551;-64
2021/07/26 06:36:28;;;;;;;7.32;4.60;;;;;;;22.53;58.90;100854.00;4987798;28;124074;-64
2021/07/26 06:38:56;;;;;;;6.68;4.30;;;;;;;22.59;59.08;100863.38;4978206;28;109469;-64
2021/07/26 06:41:24;;;;;;;6.68;4.57;;;;;;;22.65;58.99;100863.63;4972007;28;107962;-63
2021/07/26 06:43:52;;;;;;;6.78;5.00;;;;;;;22.70;59.00;100866.72;4974126;28;123883;-63
2021/07/26 06:46:49;;;;;;;7.90;4.97;;;;;;;22.77;58.83;100866.97;4983948;28;123155;-63
2021/07/26 06:49:16;;;;;;;7.88;4.80;;;;;;;22.87;59.03;100861.56;4981495;28;109729;-64
2021/07/26 06:51:44;;;;;;;7.63;4.93;;;;;;;22.96;58.78;100866.03;4980169;28;108617;-64
2021/07/26 06:54:11;;;;;;;8.35;4.88;;;;;;;23.06;58.89;100861.50;4979613;28;124527;-64
2021/07/26 06:56:38;;;;;;;9.10;5.22;;;;;;;23.18;58.42;100869.41;4975026;28;124630;-64
2021/07/26 06:59:05;;;;;;;7.45;4.78;;;;;;;23.28;58.56;100870.19;4972815;28;109143;-64
2021/07/26 07:01:32;;;;;;;8.85;5.15;;;;;;;23.40;58.39;100863.56;4972655;28;109330;-64
2021/07/26 07:03:59;;;;;;;8.27;5.00;;;;;;;23.57;58.22;100863.75;4972872;28;124087;-63
2021/07/26 07:06:27;;;;;;;7.13;4.65;;;;;;;23.70;57.74;100861.50;4974350;28;124192;-64
2021/07/26 07:08:55;;;;;;;5.60;4.28;;;;;;;23.81;57.56;100861.31;4971785;28;109658;-64
2021/07/26 07:11:24;;;;;;;6.28;4.47;;;;;;;23.95;57.40;100867.19;4973219;28;108824;-64
2021/07/26 07:13:52;;;;;;;6.32;4.05;;;;;;;24.04;57.24;100871.66;4972518;28;124216;-64
2021/07/26 07:16:21;;;;;;;6.55;4.28;;;;;;;24.12;56.82;100869.00;4975759;28;123737;-64
2021/07/26 07:18:53;;;;;;;5.78;4.18;;;;;;;24.20;56.53;100877.19;4977124;28;108263;-65
2021/07/26 07:21:26;;;;;;;6.88;4.47;;;;;;;24.31;56.54;100877.94;4978118;28;107926;-64
2021/07/26 07:23:55;;;;;;;6.13;4.20;;;;;;;24.42;56.69;100880.41;4980280;28;124039;-64
2021/07/26 07:26:23;;;;;;;5.55;4.22;;;;;;;24.55;56.59;100886.28;4975600;28;124300;-64
2021/07/26 07:28:51;;;;;;;5.05;3.67;;;;;;;24.65;56.11;100880.75;4975269;28;109163;-64
2021/07/26 07:31:23;;;;;;;5.07;4.00;;;;;;;24.76;56.04;100882.31;4982980;28;109143;-64
2021/07/26 07:33:50;;;;;;;7.45;3.83;;;;;;;24.86;55.79;100877.63;4977013;28;124625;-64
2021/07/26 07:36:19;;;;;;;5.05;3.42;;;;;;;24.96;55.69;100877.50;4973732;28;124231;-64
2021/07/26 07:38:46;;;;;;;4.90;3.70;;;;;;;25.05;55.10;100871.09;4973056;28;109456;-64
2021/07/26 07:41:13;;;;;;;4.82;3.65;;;;;;;25.13;54.93;100873.00;4977147;28;108743;-64
2021/07/26 07:43:41;;;;;;;4.90;3.70;;;;;;;25.23;54.82;100868.34;4975737;28;124006;-64
2021/07/26 07:46:08;;;;;;;5.80;3.55;;;;;;;25.29;54.64;100873.09;4973655;28;124242;-64
2021/07/26 07:48:38;;;;;;;4.53;3.28;;;;;;;25.33;54.38;100869.03;4972879;28;109502;-63
2021/07/26 07:51:09;;;;;;;5.10;3.20;;;;;;;25.37;54.13;100872.28;4942094;28;108469;-64
2021/07/26 07:53:37;;;;;;;5.35;3.40;;;;;;;25.41;53.73;100876.34;4972700;28;124413;-64
2021/07/26 07:56:04;;;;;;;4.15;3.00;;;;;;;25.47;53.85;100881.13;4973428;28;124054;-65
2021/07/26 07:58:34;;;;;;;5.28;2.92;;;;;;;25.53;53.82;100885.88;4971980;28;110377;-64
2021/07/26 08:01:02;;;;;;;4.38;3.10;;;;;;;25.62;53.40;100889.47;4976669;28;108868;-64
2021/07/26 08:03:29;;;;;;;4.88;3.10;;;;;;;25.67;53.44;100887.09;4976035;28;124030;-63
2021/07/26 08:06:00;;;;;;;4.35;3.45;;;;;;;25.74;53.45;100882.69;4975926;28;122781;-64
2021/07/26 08:08:27;;;;;;;3.80;3.22;;;;;;;25.81;53.21;100883.72;4981568;28;109362;-64
2021/07/26 08:10:54;;;;;;;4.68;3.13;;;;;;;25.87;52.83;100881.38;4975798;28;109520;-65
2021/07/26 08:13:23;;;;;;;5.07;2.70;;;;;;;25.87;52.16;100886.78;4975491;28;124066;-64
2021/07/26 08:15:52;;;;;;;3.67;2.70;;;;;;;25.87;52.09;100894.94;4976188;28;124554;-64
2021/07/26 08:18:21;;;;;;;4.05;3.00;;;;;;;25.86;52.36;100890.50;4984153;28;109480;-64
2021/07/26 08:20:49;;;;;;;5.22;2.70;;;;;;;25.83;51.81;100892.53;4983809;28;108986;-64
2021/07/26 08:23:16;;;;;;;5.10;2.80;;;;;;;25.80;51.76;100887.44;4979306;28;124180;-64
2021/07/26 08:25:43;;;;;;;4.80;2.75;;;;;;;25.80;52.04;100887.44;4972554;28;123972;-63
2021/07/26 08:28:11;;;;;;;4.20;2.70;;;;;;;25.89;51.90;100891.03;4975587;28;109174;-64
2021/07/26 08:30:38;;;;;;;3.90;2.97;;;;;;;25.93;51.75;100891.56;4974340;28;108990;-64
2021/07/26 08:33:06;;;;;;;4.38;2.90;;;;;;;25.98;51.58;100891.91;4976197;28;125336;-64
2021/07/26 08:35:34;;;;;;;3.50;2.92;;;;;;;26.08;52.04;100900.72;4961276;28;123377;-64
2021/07/26 08:38:02;;;;;;;4.22;2.67;;;;;;;26.19;51.88;100892.25;4981267;28;109365;-64
2021/07/26 08:40:30;;;;;;;4.00;2.90;;;;;;;26.31;51.66;100891.91;4961317;28;108207;-64
2021/07/26 08:43:04;;;;;;;3.30;2.63;;;;;;;26.43;51.28;100887.81;4975134;28;124171;-63
2021/07/26 08:45:32;;;;;;;4.70;2.80;;;;;;;26.62;51.10;100886.63;4974255;28;124617;-64
2021/07/26 08:48:08;;;;;;;3.67;2.70;;;;;;;26.74;50.38;100906.13;4976405;28;110445;-63
2021/07/26 08:50:38;;;;;;;4.30;2.67;;;;;;;26.78;49.75;100902.03;4973804;28;109508;-63
2021/07/26 08:53:07;;;;;;;5.22;2.80;;;;;;;26.79;49.85;100898.31;4972887;28;123138;-63
2021/07/26 08:55:35;;;;;;;4.13;2.90;;;;;;;26.87;49.73;100898.28;4979225;28;123822;-64
2021/07/26 08:58:03;;;;;;;4.32;2.90;;;;;;;26.96;49.68;100899.94;4976595;28;109390;-63
2021/07/26 09:00:31;;;;;;;4.80;3.17;;;;;;;27.08;49.62;100896.84;4972934;28;108965;-64
2021/07/26 09:02:58;;;;;;;3.15;2.30;;;;;;;27.17;49.43;100895.78;4975685;28;123355;-64
2021/07/26 09:05:25;;;;;;;3.63;2.70;;;;;;;27.29;49.47;100891.66;4979374;28;125791;-64
2021/07/26 09:07:53;;;;;;;3.75;2.60;;;;;;;27.40;49.46;100889.59;4978608;28;109134;-65
2021/07/26 09:10:23;;;;;;;3.47;2.50;;;;;;;27.49;48.75;100888.53;4977976;28;109739;-66
2021/07/26 09:12:52;;;;;;;4.43;2.78;;;;;;;27.54;48.29;100891.56;4966218;28;123470;-64
2021/07/26 09:15:34;;;;;;;8.27;6.88;;;;;;;27.60;48.42;100896.28;4977588;28;123915;-64
2021/07/26 09:18:09;;;;;;;8.18;6.22;;;;;;;27.75;48.03;100894.47;4975471;28;108116;-65
2021/07/26 09:20:39;;;;;;;;;;;;;;;27.83;48.88;100900.88;4976345;28;109243;-64
2021/07/26 09:23:14;;;;;;;4.65;3.50;;;;;;;27.93;48.42;100896.06;4979568;28;124468;-64
2021/07/26 09:25:43;;;;;;;2.83;2.50;;;;;;;28.04;47.99;100892.91;4976691;28;124325;-64
2021/07/26 09:28:17;;;;;;;3.80;2.35;;;;;;;28.12;47.11;100901.03;4974185;28;109657;-63
2021/07/26 09:30:47;;;;;;;2.67;1.97;;;;;;;28.14;47.13;100903.56;4975535;28;108891;-64
2021/07/26 09:33:23;;;;;;;2.40;1.80;;;;;;;28.17;47.03;100902.38;4975039;28;124713;-64
2021/07/26 09:36:08;;;;;;;2.72;1.85;;;;;;;28.19;46.71;100903.03;4963595;28;124202;-64
2021/07/26 09:38:57;;;;;;;3.30;1.83;;;;;;;28.26;46.75;100901.25;4973855;28;110746;-64
2021/07/26 09:41:43;;;;;;;2.80;1.90;;;;;;;28.29;46.60;100906.31;4975944;28;110217;-64
2021/07/26 09:44:11;;;;;;;2.90;2.10;;;;;;;28.29;46.19;100900.88;4966750;28;123480;-64
2021/07/26 09:46:39;;;;;;;3.88;2.33;;;;;;;28.30;46.09;100902.59;4953139;28;122865;-64
2021/07/26 09:49:11;;;;;;;4.28;1.88;;;;;;;28.29;45.97;100911.78;4984125;28;109161;-64
2021/07/26 09:51:40;;;;;;;3.15;1.65;;;;;;;28.29;45.63;100911.78;4975439;28;109028;-63
2021/07/26 09:54:08;;;;;;;2.70;1.60;;;;;;;28.28;45.59;100905.47;4974012;28;123096;-64
2021/07/26 09:56:36;;;;;;;3.72;1.75;;;;;;;28.28;45.56;100910.09;4984005;28;124518;-64
2021/07/26 09:59:03;;;;;;;3.22;2.00;;;;;;;28.28;45.51;100910.09;4979639;28;109208;-64
2021/07/26 10:01:30;;;;;;;3.17;1.90;;;;;;;28.28;45.71;100910.94;4973120;28;109694;-64
2021/07/26 10:03:58;;;;;;;4.90;2.97;;;;;;;28.27;45.67;100913.84;4973883;28;124050;-64
2021/07/26 10:06:26;;;;;;;2.92;1.80;;;;;;;28.28;45.75;100921.00;4974988;28;123682;-64
2021/07/26 10:08:57;;;;;;;2.40;1.75;;;;;;;28.27;45.28;100924.72;4958288;28;109437;-65
2021/07/26 10:11:25;;;;;;;2.22;1.83;;;;;;;28.20;45.11;100915.59;4974294;28;108698;-64
2021/07/26 10:13:52;;;;;;;2.17;1.60;;;;;;;28.11;44.89;100915.66;4973568;28;123893;-65
2021/07/26 10:16:20;;;;;;;2.22;1.60;;;;;;;28.05;45.04;100920.97;4980216;28;124279;-65
2021/07/26 10:18:49;;;;;;;2.38;1.63;;;;;;;27.99;44.77;100928.03;4974421;28;109514;-65
2021/07/26 10:21:26;;;;;;;3.38;1.65;;;;;;;27.93;45.42;100928.75;4976863;28;107776;-65
2021/07/26 10:24:02;;;;;;;3.30;1.88;;;;;;;27.88;44.88;100931.16;4973100;28;124127;-65
2021/07/26 10:26:36;;;;;;;6.53;2.05;;;;;;;27.82;45.12;100929.13;4972187;28;123967;-66
2021/07/26 10:29:04;;;;;;;2.20;1.60;;;;;;;27.75;45.11;100921.69;4973095;28;110293;-65
2021/07/26 10:31:37;;;;;;;3.80;1.63;;;;;;;27.70;45.03;100929.53;4973054;28;109748;-65
2021/07/26 10:34:04;;;;;;;2.08;1.60;;;;;;;27.68;45.15;100930.75;4949874;28;123912;-65
2021/07/26 10:36:40;;;;;;;2.70;1.60;;;;;;;27.60;45.05;100928.94;4967510;28;124409;-66
2021/07/26 10:39:11;;;;;;;2.40;1.70;;;;;;;27.58;45.48;100931.00;4962056;28;109330;-65
2021/07/26 10:41:47;;;;;;;2.55;1.75;;;;;;;27.56;45.20;100930.31;4972533;28;108865;-65
2021/07/26 10:44:17;;;;;;;3.03;1.80;;;;;;;27.56;45.09;100927.59;4955138;28;123162;-65
2021/07/26 10:46:53;;;;;;;2.95;1.85;;;;;;;27.53;44.81;100927.94;4984240;28;122924;-65
2021/07/26 10:49:21;;;;;;;2.72;2.15;;;;;;;27.51;45.15;100924.56;4962157;28;109604;-65
2021/07/26 10:51:51;;;;;;;3.33;1.70;;;;;;;27.48;45.40;100930.34;4973549;28;109174;-65
2021/07/26 10:54:32;;;;;;;2.95;1.92;;;;;;;27.46;45.30;100926.94;4972090;28;124141;-65
2021/07/26 10:57:00;;;;;;;2.55;1.80;;;;;;;27.48;45.52;100930.34;4976571;28;123722;-65
2021/07/26 10:59:28;;;;;;;2.63;1.90;;;;;;;27.49;45.34;100926.63;4977118;28;109573;-65
2021/07/26 11:02:00;;;;;;;2.95;1.90;;;;;;;27.51;45.80;100930.00;4978028;28;108817;-66
2021/07/26 11:04:39;;;;;;;3.90;2.28;;;;;;;27.53;45.71;100922.50;4977273;28;124160;-65
2021/07/26 11:07:11;;;;;;;3.22;1.95;;;;;;;27.56;45.50;100924.88;4978003;28;124302;-65
2021/07/26 11:09:39;;;;;;;3.10;1.90;;;;;;;27.57;45.27;100923.84;4979085;28;109125;-65
2021/07/26 11:12:06;;;;;;;2.83;1.80;;;;;;;27.60;45.40;100922.66;4973407;28;107878;-65
2021/07/26 11:14:34;;;;;;;3.75;2.10;;;;;;;27.61;45.41;100919.72;4971692;28;124891;-65
2021/07/26 11:17:08;;;;;;;2.67;1.90;;;;;;;27.64;45.58;100919.38;4974924;28;123759;-65
2021/07/26 11:19:46;;;;;;;;;;;;;;;27.68;46.13;100915.25;4974934;28;108487;-65
2021/07/26 11:22:17;;;;;;;2.95;2.00;;;;;;;27.80;45.80;100923.84;4977985;28;110752;-65
2021/07/26 11:24:49;;;;;;;2.83;1.90;;;;;;;27.90;45.55;100918.22;4972937;28;123253;-65
2021/07/26 11:27:22;;;;;;;3.88;1.98;;;;;;;27.99;45.28;100925.31;4975020;28;124479;-65
2021/07/26 11:29:54;;;;;;;3.75;1.90;;;;;;;28.07;45.09;100919.78;4958884;28;109642;-64